Time;durP1;ratioP1;P1;durP2;ratioP2;P2;SDS_P1;SDS_P2;PMS_P1;PMS_P2;Temp;Humidity;BMP_temperature;BMP_pressure;BME280_temperature;BME280_humidity;BME280_pressure;Samples;Min_cycle;Max_cycle;Signal;HPM_P1;HPM_P2
2022/01/24 00:02:27;;;;;;;9.00;6.53;;;5.70;99.90;;;;;;5058605;28;20047;-69
2022/01/24 00:04:53;;;;;;;11.77;7.13;;;5.70;99.90;;;;;;5049446;28;20094;-69
2022/01/24 00:07:21;;;;;;;10.15;7.07;;;5.70;99.90;;;;;;5053722;28;20398;-69
2022/01/24 00:09:47;;;;;;;8.40;6.68;;;5.70;99.90;;;;;;5052366;28;20418;-69
2022/01/24 00:12:20;;;;;;;10.68;6.65;;;5.70;99.90;;;;;;5049887;28;20101;-69
2022/01/24 00:28:11;;;;;;;9.07;6.25;;;5.60;99.90;;;;;;5056033;28;20044;-67
2022/01/24 00:30:38;;;;;;;8.75;6.15;;;5.60;99.90;;;;;;5059305;28;20037;-69
2022/01/24 00:33:04;;;;;;;9.52;6.20;;;5.60;99.90;;;;;;5058433;28;20406;-69
2022/01/24 00:35:30;;;;;;;12.15;6.55;;;5.60;99.90;;;;;;5039628;28;20053;-71
2022/01/24 00:37:59;;;;;;;10.15;6.53;;;5.60;99.90;;;;;;5053174;28;20063;-67
2022/01/24 00:40:27;;;;;;;9.30;6.65;;;5.60;99.90;;;;;;5052968;28;20044;-68
2022/01/24 00:42:56;;;;;;;8.02;6.13;;;5.60;99.90;;;;;;5053341;28;20477;-68
2022/01/24 00:45:40;;;;;;;8.13;6.13;;;5.60;99.90;;;;;;5040982;28;20037;-67
2022/01/24 00:56:02;;;;;;;9.60;6.28;;;5.50;99.90;;;;;;5048789;28;20041;-68
2022/01/24 00:58:28;;;;;;;9.63;6.18;;;5.50;99.90;;;;;;5046082;28;20490;-69
2022/01/24 01:00:54;;;;;;;7.70;5.80;;;5.50;99.90;;;;;;5051864;28;20072;-68
2022/01/24 01:03:20;;;;;;;9.85;5.70;;;5.50;99.90;;;;;;5052189;28;20041;-69
2022/01/24 01:18:57;;;;;;;7.55;5.88;;;5.50;99.90;;;;;;5060335;28;20056;-70
2022/01/24 01:21:23;;;;;;;9.05;5.75;;;5.50;99.90;;;;;;5051519;28;20033;-67
2022/01/24 01:23:54;;;;;;;11.63;6.43;;;5.50;99.90;;;;;;5045856;28;20053;-69
2022/01/24 01:29:02;;;;;;;12.45;5.63;;;5.40;99.90;;;;;;5051881;28;20418;-69
2022/01/24 01:36:57;;;;;;;8.05;5.57;;;5.40;99.90;;;;;;5050196;28;20057;-68
2022/01/24 01:39:37;;;;;;;6.95;5.53;;;5.40;99.90;;;;;;5043625;28;20180;-68
2022/01/24 01:55:39;;;;;;;7.28;5.05;;;5.30;99.90;;;;;;5053342;28;20053;-68
2022/01/24 01:58:12;;;;;;;8.93;5.68;;;5.30;99.90;;;;;;5035762;28;20148;-69
2022/01/24 02:00:45;;;;;;;8.23;5.07;;;5.30;99.90;;;;;;5037479;28;20043;-69
2022/01/24 02:03:10;;;;;;;6.78;5.05;;;5.30;99.90;;;;;;5054789;28;20098;-68
2022/01/24 02:05:36;;;;;;;7.40;5.30;;;5.30;99.90;;;;;;5051589;28;20168;-71
2022/01/24 02:08:03;;;;;;;7.40;5.10;;;5.30;99.90;;;;;;5062538;28;20071;-69
2022/01/24 02:10:29;;;;;;;7.75;5.47;;;5.30;99.90;;;;;;5044057;28;20044;-69
2022/01/24 02:12:56;;;;;;;9.40;5.20;;;5.30;99.90;;;;;;5056678;28;20048;-69
2022/01/24 02:15:30;;;;;;;7.18;5.18;;;5.20;99.90;;;;;;5053662;28;20040;-69
2022/01/24 02:23:37;;;;;;;8.63;5.80;;;5.20;99.90;;;;;;5049776;28;20057;-67
2022/01/24 02:26:06;;;;;;;8.27;5.55;;;5.20;99.90;;;;;;5049499;28;20499;-68
2022/01/24 02:33:48;;;;;;;7.03;5.07;;;5.20;99.90;;;;;;5052766;28;20123;-68
2022/01/24 02:36:19;;;;;;;7.70;5.38;;;5.10;99.90;;;;;;5044809;28;20125;-69
2022/01/24 02:39:08;;;;;;;7.72;4.95;;;5.20;99.90;;;;;;5045971;28;20380;-67
2022/01/24 02:49:29;;;;;;;10.23;5.40;;;5.10;99.90;;;;;;5045597;28;20047;-68
2022/01/24 02:52:06;;;;;;;7.10;4.82;;;5.10;99.90;;;;;;5051927;28;20374;-69
2022/01/24 02:54:33;;;;;;;7.15;5.45;;;5.10;99.90;;;;;;5038759;28;20099;-68
2022/01/24 02:57:03;;;;;;;8.88;5.38;;;5.10;99.90;;;;;;5054387;28;20481;-68
2022/01/24 02:59:29;;;;;;;9.13;5.47;;;5.10;99.90;;;;;;5045146;28;20414;-69
2022/01/24 03:01:55;;;;;;;10.73;5.65;;;5.80;99.90;;;;;;5047427;28;20045;-69
2022/01/24 03:04:21;;;;;;;9.50;6.28;;;5.10;99.90;;;;;;5050596;28;20041;-69
2022/01/24 03:06:47;;;;;;;8.55;5.85;;;5.10;99.90;;;;;;5038305;28;20044;-68
2022/01/24 03:09:13;;;;;;;8.05;5.80;;;5.00;99.90;;;;;;5051445;28;20379;-70
2022/01/24 03:14:30;;;;;;;7.88;5.47;;;5.00;99.90;;;;;;5044579;28;20045;-68
2022/01/24 03:16:57;;;;;;;8.25;5.95;;;5.00;99.90;;;;;;5053019;28;20119;-68
2022/01/24 03:19:23;;;;;;;7.65;5.78;;;5.00;99.90;;;;;;5055023;28;20433;-70
2022/01/24 03:21:49;;;;;;;9.65;5.93;;;5.00;99.90;;;;;;5050876;28;20481;-67
2022/01/24 03:24:15;;;;;;;9.15;5.82;;;5.00;99.90;;;;;;5052534;28;20077;-68
2022/01/24 03:26:41;;;;;;;8.32;5.93;;;5.00;99.90;;;;;;5059296;28;20119;-69
2022/01/24 03:29:08;;;;;;;10.05;6.28;;;5.00;99.90;;;;;;5059406;28;20040;-67
2022/01/24 03:31:34;;;;;;;8.60;5.90;;;5.00;99.90;;;;;;5056877;28;20116;-68
2022/01/24 03:34:00;;;;;;;9.15;6.20;;;5.00;99.90;;;;;;5061066;28;20413;-69
2022/01/24 03:36:26;;;;;;;11.43;6.18;;;5.00;99.90;;;;;;5046592;28;20042;-69
2022/01/24 03:38:51;;;;;;;9.70;6.60;;;5.00;99.90;;;;;;5057426;28;20482;-69
2022/01/24 03:41:17;;;;;;;9.27;6.55;;;5.00;99.90;;;;;;5052918;28;20128;-69
2022/01/24 03:43:43;;;;;;;7.95;5.88;;;5.00;99.90;;;;;;5052870;28;20048;-69
2022/01/24 03:46:24;;;;;;;10.68;6.53;;;5.00;99.90;;;;;;5043919;28;20398;-69
2022/01/24 03:48:54;;;;;;;9.18;5.90;;;5.00;99.90;;;;;;5051369;28;20501;-68
2022/01/24 03:51:21;;;;;;;9.27;6.65;;;5.00;99.90;;;;;;5051610;28;20041;-68
2022/01/24 03:53:48;;;;;;;10.00;6.20;;;5.00;99.90;;;;;;5056486;28;20129;-70
2022/01/24 03:56:14;;;;;;;10.20;6.28;;;5.00;99.90;;;;;;5042861;28;20038;-69
2022/01/24 03:58:41;;;;;;;10.45;6.40;;;5.00;99.90;;;;;;5050899;28;20127;-69
2022/01/24 04:01:08;;;;;;;10.88;7.30;;;5.00;99.90;;;;;;5055691;28;20029;-69
2022/01/24 04:03:35;;;;;;;10.70;6.45;;;5.00;99.90;;;;;;5062544;28;20111;-69
2022/01/24 04:06:01;;;;;;;9.85;6.05;;;5.00;99.90;;;;;;5041486;28;20357;-68
2022/01/24 04:08:26;;;;;;;11.82;6.75;;;5.00;99.90;;;;;;5043883;28;20478;-70
2022/01/24 04:10:55;;;;;;;9.77;6.75;;;5.00;99.90;;;;;;5062693;28;20040;-68
2022/01/24 04:21:27;;;;;;;11.18;7.90;;;5.00;99.90;;;;;;5047508;28;20049;-69
2022/01/24 04:26:25;;;;;;;11.43;7.22;;;5.00;99.90;;;;;;5051330;28;20045;-68
2022/01/24 04:28:51;;;;;;;10.02;6.68;;;5.30;99.90;;;;;;5049684;28;20081;-70
2022/01/24 04:31:17;;;;;;;11.27;7.53;;;5.00;99.90;;;;;;5055878;28;20072;-68
2022/01/24 04:33:43;;;;;;;12.70;7.82;;;5.00;99.90;;;;;;5038684;28;20088;-68
2022/01/24 04:36:09;;;;;;;10.15;7.00;;;5.00;99.90;;;;;;5041450;28;20445;-69
2022/01/24 04:38:34;;;;;;;11.75;7.93;;;5.00;99.90;;;;;;5062481;28;20044;-69
2022/01/24 04:41:05;;;;;;;13.18;7.95;;;5.00;99.90;;;;;;5051730;28;20094;-69
2022/01/24 04:54:36;;;;;;;16.67;9.55;;;5.00;99.90;;;;;;5048743;28;20124;-69
2022/01/24 04:56:49;;;;;;;15.43;10.10;;;5.00;99.90;;;;;;5043192;28;20131;-69
2022/01/24 04:59:14;;;;;;;15.82;9.85;;;5.00;99.90;;;;;;5053013;28;20068;-69
2022/01/24 05:01:40;;;;;;;14.02;9.55;;;5.00;99.90;;;;;;5048710;28;20045;-69
2022/01/24 05:04:06;;;;;;;17.00;10.57;;;5.00;99.90;;;;;;5068532;28;20136;-71
2022/01/24 05:06:31;;;;;;;15.20;9.45;;;5.00;99.90;;;;;;5079760;28;20421;-70
2022/01/24 05:08:57;;;;;;;18.70;10.05;;;5.00;99.90;;;;;;5038404;28;20774;-69
2022/01/24 05:11:35;;;;;;;18.38;11.18;;;5.00;99.90;;;;;;5049773;28;20425;-69
2022/01/24 05:24:46;;;;;;;19.75;11.38;;;5.10;99.90;;;;;;5053941;28;20678;-67
2022/01/24 05:27:12;;;;;;;17.05;10.93;;;5.00;99.90;;;;;;5054606;28;20053;-68
2022/01/24 05:29:38;;;;;;;17.80;11.05;;;5.00;99.90;;;;;;5065319;28;20068;-68
2022/01/24 05:32:07;;;;;;;17.77;10.30;;;5.00;99.90;;;;;;5052393;28;20053;-67
2022/01/24 05:34:33;;;;;;;17.13;11.10;;;5.00;99.90;;;;;;5042188;28;20372;-70
2022/01/24 05:36:58;;;;;;;18.58;10.90;;;4.90;99.90;;;;;;5043591;28;20041;-69
2022/01/24 05:39:24;;;;;;;18.52;10.90;;;5.00;99.90;;;;;;5045398;28;20044;-69
2022/01/24 05:41:50;;;;;;;20.15;11.40;;;5.00;99.90;;;;;;5052628;28;20076;-67
2022/01/24 05:44:15;;;;;;;18.05;12.40;;;5.00;99.90;;;;;;5054708;28;20048;-69
2022/01/24 05:46:41;;;;;;;18.58;11.38;;;5.00;99.90;;;;;;5052931;28;20048;-69
2022/01/24 05:49:07;;;;;;;20.35;11.48;;;5.00;99.90;;;;;;5056788;28;20076;-68
2022/01/24 05:51:32;;;;;;;20.25;11.77;;;5.00;99.90;;;;;;5039519;28;20393;-67
2022/01/24 05:53:59;;;;;;;18.52;12.00;;;5.00;99.90;;;;;;5053552;28;20048;-67
2022/01/24 05:56:24;;;;;;;18.35;11.32;;;5.00;99.90;;;;;;5036176;28;20404;-67
2022/01/24 05:58:50;;;;;;;20.00;12.50;;;4.90;99.90;;;;;;5051762;28;20136;-68
2022/01/24 06:01:16;;;;;;;19.25;12.23;;;5.00;99.90;;;;;;5049449;28;20032;-67
2022/01/24 06:03:41;;;;;;;20.17;11.45;;;4.90;99.90;;;;;;5047381;28;20475;-67
2022/01/24 06:06:08;;;;;;;19.40;11.90;;;4.90;99.90;;;;;;5048117;28;20041;-68
2022/01/24 06:08:36;;;;;;;21.75;12.48;;;5.00;99.90;;;;;;5049321;28;20051;-69
2022/01/24 06:11:02;;;;;;;20.67;12.27;;;5.00;99.90;;;;;;5047464;28;20037;-68
2022/01/24 06:13:30;;;;;;;18.58;11.40;;;5.00;99.90;;;;;;5025359;28;20557;-68
2022/01/24 06:15:56;;;;;;;18.80;12.10;;;5.80;99.90;;;;;;5043343;28;20099;-70
2022/01/24 06:18:25;;;;;;;20.17;12.77;;;5.00;99.90;;;;;;5040172;28;20048;-68
2022/01/24 06:20:51;;;;;;;20.67;12.13;;;5.00;99.90;;;;;;5038836;28;20057;-68
2022/01/24 06:23:18;;;;;;;19.55;12.38;;;5.00;99.90;;;;;;5066049;28;20398;-67
2022/01/24 06:25:44;;;;;;;20.98;12.75;;;5.00;99.90;;;;;;5053928;28;20088;-68
2022/01/24 06:28:10;;;;;;;20.02;13.35;;;5.00;99.90;;;;;;5051183;28;20099;-69
2022/01/24 06:30:36;;;;;;;20.88;12.07;;;5.00;99.90;;;;;;5042874;28;20080;-70
2022/01/24 06:33:02;;;;;;;21.85;13.20;;;5.00;99.90;;;;;;5044323;28;20083;-68
2022/01/24 06:35:28;;;;;;;20.58;12.75;;;5.10;99.90;;;;;;5048806;28;20048;-68
2022/01/24 06:37:53;;;;;;;23.67;12.20;;;5.00;99.90;;;;;;5042081;28;20468;-69
2022/01/24 06:40:19;;;;;;;20.17;11.85;;;5.00;99.90;;;;;;5049869;28;20041;-69
2022/01/24 06:42:45;;;;;;;24.77;12.57;;;5.00;99.90;;;;;;5033623;28;20106;-68
2022/01/24 06:45:11;;;;;;;21.00;12.38;;;5.00;99.90;;;;;;5042135;28;20045;-69
2022/01/24 06:47:37;;;;;;;19.80;11.35;;;5.00;99.90;;;;;;5050647;28;20053;-68
2022/01/24 06:50:04;;;;;;;19.10;11.68;;;5.00;99.90;;;;;;5048483;28;20091;-68
2022/01/24 06:52:30;;;;;;;20.88;12.90;;;5.00;99.90;;;;;;5043144;28;20123;-68
2022/01/24 06:54:55;;;;;;;18.00;11.77;;;5.00;99.90;;;;;;5048506;28;20128;-68
2022/01/24 06:57:21;;;;;;;20.50;12.00;;;6.40;99.90;;;;;;5067681;28;20041;-67
2022/01/24 06:59:47;;;;;;;18.88;12.30;;;5.00;99.90;;;;;;5046166;28;20044;-67
2022/01/24 07:02:15;;;;;;;20.77;12.20;;;5.00;99.90;;;;;;5057939;28;20039;-67
2022/01/24 07:04:42;;;;;;;19.20;11.93;;;5.00;99.90;;;;;;5054725;28;20048;-68
2022/01/24 07:07:08;;;;;;;19.80;12.52;;;5.00;99.90;;;;;;5049619;28;20539;-66
2022/01/24 07:09:35;;;;;;;22.35;12.32;;;5.00;99.90;;;;;;5054571;28;20048;-67
2022/01/24 07:12:00;;;;;;;19.55;11.68;;;5.00;99.90;;;;;;5058389;28;20493;-66
2022/01/24 07:14:27;;;;;;;19.40;12.65;;;5.00;99.90;;;;;;5044745;28;20048;-67
2022/01/24 07:19:30;;;;;;;18.40;11.85;;;5.00;99.90;;;;;;5060195;28;20135;-69
2022/01/24 07:21:58;;;;;;;19.58;12.30;;;5.00;99.90;;;;;;5059220;28;20073;-68
2022/01/24 07:24:24;;;;;;;19.55;12.15;;;5.00;99.90;;;;;;5059373;28;20124;-68
2022/01/24 07:26:50;;;;;;;16.55;10.68;;;5.00;99.90;;;;;;5058365;28;20079;-69
2022/01/24 07:29:16;;;;;;;18.25;12.10;;;5.00;99.90;;;;;;5040367;28;20041;-67
2022/01/24 07:31:42;;;;;;;20.50;11.30;;;5.00;99.90;;;;;;5080338;28;20482;-69
2022/01/24 07:34:08;;;;;;;17.67;11.65;;;5.00;99.90;;;;;;5056786;28;20045;-67
2022/01/24 07:36:34;;;;;;;21.15;12.05;;;5.00;99.90;;;;;;5052631;28;20041;-69
2022/01/24 07:39:00;;;;;;;17.02;10.82;;;5.00;99.90;;;;;;5051584;28;20075;-70
2022/01/24 07:41:28;;;;;;;17.10;11.18;;;5.00;99.90;;;;;;5051258;28;20292;-67
2022/01/24 07:43:55;;;;;;;17.75;10.65;;;5.00;99.90;;;;;;5044006;28;20084;-70
2022/01/24 07:46:21;;;;;;;17.48;11.35;;;5.10;99.90;;;;;;5055151;28;20056;-70
2022/01/24 07:48:47;;;;;;;17.75;10.60;;;5.00;99.90;;;;;;5054574;28;20049;-69
2022/01/24 07:51:15;;;;;;;19.45;10.85;;;5.10;99.90;;;;;;5074743;28;20044;-68
2022/01/24 07:53:41;;;;;;;18.23;10.73;;;5.10;99.90;;;;;;5050150;28;20163;-69
2022/01/24 07:56:08;;;;;;;20.27;11.02;;;5.00;99.90;;;;;;5064707;28;20049;-69
2022/01/24 07:58:34;;;;;;;15.20;10.10;;;5.00;99.90;;;;;;5047609;28;20120;-69
2022/01/24 08:00:59;;;;;;;17.08;10.95;;;5.00;99.90;;;;;;5045327;28;20051;-68
2022/01/24 08:03:26;;;;;;;17.27;10.75;;;5.00;99.90;;;;;;5066641;28;20427;-68
2022/01/24 08:05:52;;;;;;;19.25;11.20;;;5.00;99.90;;;;;;5037018;28;20099;-69
2022/01/24 08:08:18;;;;;;;16.70;11.00;;;5.00;99.90;;;;;;5048137;28;20050;-69
2022/01/24 08:10:44;;;;;;;16.00;10.25;;;5.00;99.90;;;;;;5051932;28;20041;-68
2022/01/24 08:13:09;;;;;;;16.38;10.18;;;5.00;99.90;;;;;;5053098;28;20094;-68
2022/01/24 08:15:35;;;;;;;13.68;9.23;;;5.00;99.90;;;;;;5050068;28;20124;-68
2022/01/24 08:18:01;;;;;;;14.75;9.18;;;5.10;99.90;;;;;;5055875;28;20106;-68
2022/01/24 08:20:27;;;;;;;14.90;8.63;;;5.00;99.90;;;;;;5053599;28;20043;-69
2022/01/24 08:22:53;;;;;;;16.25;10.27;;;5.10;99.90;;;;;;5054189;28;20437;-68
2022/01/24 08:25:19;;;;;;;15.20;9.93;;;5.10;99.90;;;;;;5053325;28;20060;-69
2022/01/24 08:27:47;;;;;;;16.95;11.25;;;5.10;99.90;;;;;;5055302;28;20040;-67
2022/01/24 08:30:15;;;;;;;;;;;5.10;99.90;;;;;;5055681;28;20124;-68
2022/01/24 08:32:40;;;;;;;13.73;9.48;;;5.10;99.90;;;;;;5052272;28;19925;-68
2022/01/24 08:35:08;;;;;;;16.23;10.57;;;5.10;99.90;;;;;;5052823;28;20056;-69
2022/01/24 08:37:35;;;;;;;16.05;10.00;;;5.10;99.90;;;;;;5041130;28;20050;-71
2022/01/24 08:40:00;;;;;;;16.13;9.98;;;5.10;99.90;;;;;;5035980;28;20153;-67
2022/01/24 08:47:27;;;;;;;19.40;11.48;;;5.10;99.90;;;;;;5055788;28;20045;-70
2022/01/24 08:49:53;;;;;;;15.80;10.07;;;5.10;99.90;;;;;;5056157;28;20053;-69
2022/01/24 08:52:20;;;;;;;13.90;10.07;;;5.30;99.90;;;;;;5069383;28;20037;-69
2022/01/24 08:54:47;;;;;;;17.50;11.65;;;5.20;99.90;;;;;;5040226;28;20053;-70
2022/01/24 08:57:13;;;;;;;16.80;11.10;;;5.20;99.90;;;;;;5039587;28;20079;-68
2022/01/24 08:59:39;;;;;;;18.15;11.85;;;5.20;99.90;;;;;;5068803;28;20048;-68
2022/01/24 09:02:06;;;;;;;19.38;11.88;;;5.20;99.90;;;;;;5046800;28;20449;-67
2022/01/24 09:04:32;;;;;;;19.20;12.20;;;5.20;99.90;;;;;;5056814;28;20048;-68
2022/01/24 09:07:04;;;;;;;19.90;12.13;;;5.20;99.90;;;;;;5056852;28;20124;-68
2022/01/24 09:09:33;;;;;;;19.35;12.60;;;5.20;99.90;;;;;;5058538;28;20056;-69
2022/01/24 09:12:00;;;;;;;21.88;13.38;;;5.20;99.90;;;;;;5061272;28;20037;-69
2022/01/24 09:14:26;;;;;;;18.23;11.93;;;5.30;99.90;;;;;;5050199;28;20048;-68
2022/01/24 09:16:51;;;;;;;18.67;11.70;;;5.30;99.90;;;;;;5056697;28;20044;-68
2022/01/24 09:19:17;;;;;;;19.90;13.40;;;5.40;99.90;;;;;;5047579;28;20083;-67
2022/01/24 09:21:43;;;;;;;20.20;12.70;;;5.30;99.90;;;;;;5054376;28;20053;-68
2022/01/24 09:24:08;;;;;;;19.98;12.65;;;5.30;99.90;;;;;;5055044;28;20112;-68
2022/01/24 09:26:34;;;;;;;20.27;13.25;;;5.30;99.90;;;;;;5041769;28;20053;-68
2022/01/24 09:29:00;;;;;;;23.90;14.23;;;5.30;99.90;;;;;;5045631;28;20491;-67
2022/01/24 09:31:26;;;;;;;21.95;13.30;;;5.30;99.90;;;;;;5056275;28;20073;-70
2022/01/24 09:33:53;;;;;;;20.58;13.57;;;5.40;99.90;;;;;;5059291;28;20441;-68
2022/01/24 09:36:20;;;;;;;22.73;12.40;;;5.30;99.90;;;;;;5043508;28;20053;-68
2022/01/24 09:38:45;;;;;;;20.77;13.20;;;5.40;99.90;;;;;;5042898;28;20041;-68
2022/01/24 09:41:15;;;;;;;21.83;14.57;;;5.40;99.90;;;;;;5052118;28;20406;-69
2022/01/24 09:43:43;;;;;;;28.17;16.48;;;5.40;99.90;;;;;;5052455;28;20041;-66
2022/01/24 09:46:10;;;;;;;30.42;17.30;;;5.40;99.90;;;;;;5058507;28;20395;-67
2022/01/24 09:48:38;;;;;;;29.67;17.50;;;5.40;99.90;;;;;;5055735;28;20399;-69
2022/01/24 09:51:04;;;;;;;28.17;17.17;;;5.40;99.90;;;;;;5055886;28;20072;-69
2022/01/24 09:53:32;;;;;;;27.77;16.88;;;5.40;99.90;;;;;;5053746;28;20041;-69
2022/01/24 09:56:02;;;;;;;26.52;17.13;;;5.50;99.90;;;;;;5042893;28;20069;-68
2022/01/24 09:58:28;;;;;;;31.08;17.65;;;5.50;99.90;;;;;;5055056;28;20040;-68
2022/01/24 10:00:54;;;;;;;29.20;17.98;;;5.50;99.90;;;;;;5051274;28;20037;-68
2022/01/24 10:03:23;;;;;;;31.80;18.92;;;5.50;99.90;;;;;;5071312;28;20491;-68
2022/01/24 10:05:56;;;;;;;32.58;18.65;;;5.60;99.90;;;;;;5053904;28;20037;-67
2022/01/24 10:08:24;;;;;;;31.85;18.58;;;5.60;99.90;;;;;;5055896;28;20057;-66
2022/01/24 10:10:59;;;;;;;29.17;18.30;;;5.60;99.90;;;;;;5046256;28;20049;-67
2022/01/24 10:16:24;;;;;;;31.45;18.55;;;5.60;99.90;;;;;;5041714;28;20045;-70
2022/01/24 10:19:17;;;;;;;33.50;20.30;;;5.70;99.90;;;;;;5081725;28;20053;-67
2022/01/24 10:21:44;;;;;;;35.28;20.25;;;5.60;99.90;;;;;;5055592;28;20141;-67
2022/01/24 10:24:12;;;;;;;40.33;21.63;;;5.60;99.90;;;;;;5055652;28;20478;-68
2022/01/24 10:26:38;;;;;;;;;;;5.70;99.90;;;;;;5060568;28;20036;-68
2022/01/24 10:29:12;;;;;;;39.67;22.02;;;5.90;99.90;;;;;;5066866;28;19928;-68
2022/01/24 10:31:46;;;;;;;37.90;21.02;;;5.70;99.90;;;;;;5068916;28;20040;-66
2022/01/24 10:34:18;;;;;;;37.30;21.35;;;5.70;99.90;;;;;;5068185;28;20071;-70
2022/01/24 10:36:50;;;;;;;38.20;22.92;;;5.70;99.90;;;;;;5060983;28;20053;-67
2022/01/24 10:40:20;;;;;;;37.45;21.65;;;5.70;99.90;;;;;;5064487;28;20067;-68
2022/01/24 10:45:00;;;;;;;40.63;23.67;;;5.70;99.90;;;;;;5058748;28;19967;-68
2022/01/24 10:47:32;;;;;;;40.10;23.50;;;5.90;99.90;;;;;;5042240;28;20041;-70
2022/01/24 10:50:01;;;;;;;46.03;23.50;;;5.70;99.90;;;;;;5056570;28;20041;-68
2022/01/24 10:52:32;;;;;;;43.35;24.70;;;5.70;99.90;;;;;;5058819;28;20037;-70
2022/01/24 10:55:15;;;;;;;40.88;23.63;;;5.70;99.90;;;;;;5056001;28;20396;-67
2022/01/24 10:57:44;;;;;;;43.85;24.45;;;5.80;99.90;;;;;;5069091;28;20033;-66
2022/01/24 11:00:16;;;;;;;43.60;24.77;;;5.80;99.90;;;;;;5058570;28;20104;-68
2022/01/24 11:02:44;;;;;;;47.15;25.63;;;5.80;99.90;;;;;;5068064;28;20037;-67
2022/01/24 11:05:23;;;;;;;42.38;23.73;;;5.80;99.90;;;;;;5063501;28;20033;-70
2022/01/24 11:07:52;;;;;;;49.22;23.63;;;5.80;99.90;;;;;;5096891;28;20045;-66
2022/01/24 11:10:18;;;;;;;46.63;24.77;;;5.80;99.90;;;;;;5062993;28;20119;-67
2022/01/24 11:12:44;;;;;;;46.08;25.73;;;5.80;99.90;;;;;;5060813;28;20045;-68
2022/01/24 11:15:11;;;;;;;47.60;26.05;;;5.80;99.90;;;;;;5055761;28;20037;-66
2022/01/24 11:17:37;;;;;;;48.03;25.83;;;5.70;99.90;;;;;;5041483;28;20049;-70
2022/01/24 11:20:04;;;;;;;47.78;26.80;;;5.80;99.90;;;;;;5045397;28;20056;-66
2022/01/24 11:22:33;;;;;;;52.03;28.55;;;5.80;99.90;;;;;;5048298;28;20107;-69
2022/01/24 11:25:03;;;;;;;44.65;26.55;;;5.80;99.90;;;;;;5043177;28;20125;-68
2022/01/24 11:27:29;;;;;;;46.72;24.83;;;5.80;99.90;;;;;;5061695;28;20487;-68
2022/01/24 11:29:58;;;;;;;42.47;24.17;;;5.80;99.90;;;;;;5058655;28;20045;-68
2022/01/24 11:32:38;;;;;;;44.17;25.10;;;5.80;99.90;;;;;;5057640;28;20100;-67
2022/01/24 11:35:04;;;;;;;45.97;24.80;;;5.80;99.90;;;;;;5051335;28;20122;-66
2022/01/24 11:37:42;;;;;;;43.45;25.15;;;5.80;99.90;;;;;;5057586;28;20045;-68
2022/01/24 11:40:17;;;;;;;42.57;23.93;;;5.80;99.90;;;;;;5049814;28;20037;-68
2022/01/24 11:42:46;;;;;;;40.78;23.17;;;5.90;99.90;;;;;;5052323;28;20051;-68
2022/01/24 11:45:16;;;;;;;43.40;23.75;;;5.90;99.90;;;;;;5052479;28;20115;-68
2022/01/24 11:47:44;;;;;;;46.30;25.98;;;5.90;99.90;;;;;;5070054;28;20052;-69
2022/01/24 11:50:37;;;;;;;45.50;26.23;;;5.90;99.90;;;;;;5056159;28;20069;-69
2022/01/24 11:53:21;;;;;;;45.35;24.83;;;5.90;99.90;;;;;;5050169;28;20123;-68
2022/01/24 11:55:46;;;;;;;47.50;26.80;;;5.90;99.90;;;;;;5056246;28;20052;-68
2022/01/24 11:58:25;;;;;;;48.28;26.90;;;5.90;99.90;;;;;;5054391;28;20037;-68
2022/01/24 12:00:54;;;;;;;54.05;28.73;;;5.90;99.90;;;;;;5042754;28;20090;-68
2022/01/24 12:03:27;;;;;;;48.45;27.17;;;5.90;99.90;;;;;;5055644;28;20406;-67
2022/01/24 12:05:56;;;;;;;49.65;27.55;;;5.90;99.90;;;;;;5057287;28;20482;-69
2022/01/24 12:08:33;;;;;;;47.95;26.45;;;5.90;99.90;;;;;;5058567;28;20049;-65
2022/01/24 12:11:22;;;;;;;45.78;25.15;;;5.90;99.90;;;;;;5037867;28;20502;-67
2022/01/24 12:13:53;;;;;;;47.17;25.25;;;5.80;99.90;;;;;;5064645;28;20055;-67
2022/01/24 12:16:19;;;;;;;45.15;24.88;;;5.80;99.90;;;;;;5056047;28;20049;-67
2022/01/24 12:18:48;;;;;;;42.15;23.52;;;5.80;99.90;;;;;;5057358;28;20052;-67
2022/01/24 12:21:26;;;;;;;44.25;24.23;;;5.80;99.90;;;;;;5050410;28;20077;-69
2022/01/24 12:23:55;;;;;;;41.03;24.47;;;5.80;99.90;;;;;;5054065;28;20045;-67
2022/01/24 12:26:22;;;;;;;45.72;24.80;;;5.80;99.90;;;;;;5054237;28;20045;-68
2022/01/24 12:28:50;;;;;;;44.55;24.52;;;5.90;99.90;;;;;;5049156;28;20049;-67
2022/01/24 12:31:35;;;;;;;38.00;22.83;;;5.90;99.90;;;;;;5057720;28;20109;-67
2022/01/24 12:34:08;;;;;;;41.10;23.70;;;6.80;99.90;;;;;;5065579;28;20055;-67
2022/01/24 12:36:37;;;;;;;41.42;23.52;;;5.90;99.90;;;;;;5054327;28;20152;-67
2022/01/24 12:39:11;;;;;;;40.25;23.40;;;5.90;99.90;;;;;;5036527;28;20045;-67
2022/01/24 12:41:44;;;;;;;40.45;22.45;;;6.00;99.90;;;;;;5063596;28;20059;-66
2022/01/24 12:46:18;;;;;;;35.30;21.85;;;6.00;99.90;;;;;;5063136;28;20390;-67
2022/01/24 12:46:55;;;;;;;39.65;21.98;;;5.90;99.90;;;;;;5051256;28;20049;-68
2022/01/24 12:49:21;;;;;;;39.08;22.45;;;5.90;99.90;;;;;;5068323;28;20077;-69
2022/01/24 12:51:49;;;;;;;39.22;21.88;;;5.90;99.90;;;;;;5058481;28;20402;-70
2022/01/24 12:54:16;;;;;;;35.83;21.48;;;5.90;99.90;;;;;;5053882;28;20045;-67
2022/01/24 12:56:42;;;;;;;37.30;21.47;;;5.90;99.90;;;;;;5051751;28;20047;-68
2022/01/24 12:59:08;;;;;;;38.63;22.13;;;5.80;99.90;;;;;;5053699;28;20384;-69
2022/01/24 13:01:41;;;;;;;40.40;22.30;;;5.80;99.90;;;;;;5044532;28;20052;-68
2022/01/24 13:04:10;;;;;;;37.90;21.17;;;5.70;99.90;;;;;;5056284;28;20068;-68
2022/01/24 13:06:43;;;;;;;41.95;21.90;;;5.80;99.90;;;;;;5056723;28;20037;-67
2022/01/24 13:09:25;;;;;;;38.30;22.73;;;5.70;99.90;;;;;;5054947;28;20044;-67
2022/01/24 13:12:04;;;;;;;38.63;22.77;;;5.70;99.90;;;;;;5054121;28;20045;-68
2022/01/24 13:14:42;;;;;;;35.80;21.00;;;5.70;99.90;;;;;;5054845;28;20051;-66
2022/01/24 13:25:26;;;;;;;40.20;22.20;;;5.70;99.90;;;;;;5054100;28;20048;-67
2022/01/24 13:27:55;;;;;;;38.35;22.52;;;5.80;99.90;;;;;;5054631;28;20052;-68
2022/01/24 13:30:40;;;;;;;38.20;21.85;;;5.80;99.90;;;;;;5033622;28;20045;-68
2022/01/24 13:33:12;;;;;;;39.63;22.75;;;5.80;99.90;;;;;;5054576;28;20418;-68
2022/01/24 13:35:46;;;;;;;42.67;23.75;;;5.80;99.90;;;;;;5052481;28;20052;-68
2022/01/24 13:38:13;;;;;;;42.42;23.50;;;5.80;99.90;;;;;;5036923;28;20060;-67
2022/01/24 13:40:52;;;;;;;37.80;22.80;;;5.80;99.90;;;;;;5054775;28;20037;-68
2022/01/24 13:43:40;;;;;;;36.35;21.20;;;5.80;99.90;;;;;;5054852;28;20037;-69
2022/01/24 13:46:22;;;;;;;38.85;21.45;;;5.70;99.90;;;;;;5055039;28;20045;-68
2022/01/24 13:48:50;;;;;;;40.33;22.25;;;5.70;99.90;;;;;;5071363;28;20044;-67
2022/01/24 13:51:20;;;;;;;34.75;21.20;;;5.70;99.90;;;;;;5064794;28;20072;-67
2022/01/24 13:53:53;;;;;;;35.85;20.85;;;5.70;99.90;;;;;;5067611;28;20521;-68
2022/01/24 13:56:40;;;;;;;35.78;20.95;;;5.70;99.90;;;;;;5054363;28;20036;-68
2022/01/24 13:59:23;;;;;;;36.42;21.90;;;5.70;99.90;;;;;;5053215;28;20041;-67
2022/01/24 14:01:51;;;;;;;33.40;20.50;;;5.60;99.90;;;;;;5055506;28;20045;-69
2022/01/24 14:04:29;;;;;;;39.03;23.13;;;5.70;99.90;;;;;;5047586;28;20033;-69
2022/01/24 14:06:57;;;;;;;39.10;22.45;;;5.60;99.90;;;;;;5055545;28;20108;-69
2022/01/24 14:09:39;;;;;;;40.17;22.75;;;5.60;99.90;;;;;;5053878;28;20546;-68
2022/01/24 14:12:08;;;;;;;39.88;22.63;;;5.60;99.90;;;;;;5038997;28;20084;-67
2022/01/24 14:14:50;;;;;;;44.42;22.95;;;5.60;99.90;;;;;;5053017;28;20044;-68
2022/01/24 14:19:43;;;;;;;40.90;23.50;;;5.60;99.90;;;;;;5061948;28;20422;-69
2022/01/24 14:22:11;;;;;;;41.95;23.10;;;5.60;99.90;;;;;;5058003;28;20063;-67
2022/01/24 14:24:55;;;;;;;42.00;22.83;;;5.60;99.90;;;;;;5057838;28;20502;-66
2022/01/24 14:27:41;;;;;;;37.70;21.48;;;5.60;99.90;;;;;;5053473;28;20044;-66
2022/01/24 14:30:20;;;;;;;36.55;21.55;;;5.60;99.90;;;;;;5037682;28;20041;-67
2022/01/24 14:33:38;;;;;;;35.70;21.27;;;5.60;99.90;;;;;;5034110;28;20436;-68
2022/01/24 14:36:08;;;;;;;37.50;22.60;;;5.50;99.90;;;;;;5044990;28;20072;-67
2022/01/24 14:38:42;;;;;;;36.67;21.17;;;5.50;99.90;;;;;;5052724;28;20494;-68
2022/01/24 14:41:18;;;;;;;39.28;22.27;;;5.50;99.90;;;;;;5046254;28;20083;-68
2022/01/24 14:46:33;;;;;;;35.08;21.02;;;5.50;99.90;;;;;;5046647;28;20082;-67
2022/01/24 14:49:05;;;;;;;35.60;20.88;;;5.60;99.90;;;;;;5061215;28;20079;-69
2022/01/24 14:51:33;;;;;;;35.00;20.45;;;5.50;99.90;;;;;;5045707;28;20098;-67
2022/01/24 14:54:02;;;;;;;34.70;20.17;;;5.50;99.90;;;;;;5048218;28;20574;-68
2022/01/24 14:56:29;;;;;;;37.10;21.23;;;5.50;99.90;;;;;;5050642;28;20476;-68
2022/01/24 14:58:55;;;;;;;35.50;20.70;;;5.40;99.90;;;;;;5055260;28;20070;-67
2022/01/24 15:01:21;;;;;;;35.40;19.95;;;5.40;99.90;;;;;;5059217;28;20597;-67
2022/01/24 15:03:49;;;;;;;34.03;20.33;;;5.40;99.90;;;;;;5061158;28;20048;-68
2022/01/24 15:06:16;;;;;;;38.45;21.00;;;5.30;99.90;;;;;;5051569;28;20049;-70
2022/01/24 15:08:46;;;;;;;36.60;20.85;;;5.40;99.90;;;;;;5044659;28;20487;-69
2022/01/24 15:11:14;;;;;;;38.17;20.83;;;5.30;99.90;;;;;;5052031;28;20502;-70